Luhe — 3FVZ6 — position and weather

sailwx.info

Track history (hours):
 
Tides and Currents Weather Stations Pressure Air Temp Water Temp Dewpoint Dewpoint Depression Visibility Wind Speed Wind Dir Waves Ship Positions

Luhe

Last reported at 2014-Jul-29 08:33 UTC. Time now 2014-Jul-29 08:46 UTC.
Position S 39°10' E 146°26'.

Length 280 m; draft 11.1 m.

Type: Cargo ship. MMSI: 354812000.

Date/timePositionNaut miles runAvg speedWind from/ knotsBaromVisibWave heightAir tempDewpointWater temp
2014-Jul-29 08:33S 39°10' E 146°26'7 6.9
2014-Jul-29 07:33S 39°08' E 146°34'7 7.2
2014-Jul-29 06:32S 39°06' E 146°43'7 7.0
2014-Jul-29 05:31S 39°03' E 146°52'7 7.5
2014-Jul-29 04:33S 39°01' E 147°01'1615.6
2014-Jul-29 03:33S 38°56' E 147°20'1616.4
2014-Jul-29 02:33S 38°51' E 147°40'10517.5
2014-Jul-28 20:33S 37°59' E 149°37'1817.2
2014-Jul-28 19:32S 37°48' E 149°54'1817.8
2014-Jul-28 18:33S 37°33' E 150°06'1918.6
2014-Jul-28 17:32S 37°15' E 150°14'  
2014-Jul-25 21:33S 33°21' E 151°59'1514.9
2014-Jul-25 20:33S 33°09' E 152°11'1515.1
2014-Jul-25 19:33S 32°58' E 152°22'1515.2
2014-Jul-25 18:33S 32°46' E 152°34'1615.5
2014-Jul-25 17:33S 32°33' E 152°45'2216.4
2014-Jul-25 16:12S 32°13' E 152°54'1116.3
2014-Jul-25 15:30S 32°02' E 152°59'22316.6
2014-Jul-25 02:07S 28°24' E 153°50'1016.0
2014-Jul-25 01:30S 28°14' E 153°51'1716.0
2014-Jul-25 00:27S 27°57' E 153°52'1415.5
2014-Jul-24 23:34S 27°43' E 153°53'1515.4
2014-Jul-24 22:33S 27°28' E 153°55'1414.5
2014-Jul-24 21:33S 27°14' E 153°56'1514.7
2014-Jul-24 20:33S 26°59' E 153°58'1614.4
2014-Jul-24 19:26S 26°43' E 153°59'1813.8
2014-Jul-24 18:08S 26°25' E 154°01'4314.0
2014-Jul-24 15:04S 25°42' E 154°05'714.1
2014-Jul-24 14:33S 25°35' E 154°06'1514.8
2014-Jul-24 13:31S 25°20' E 154°07'  
Track history (hours):
 
Tides and Currents Weather Stations Pressure Air Temp Water Temp Dewpoint Dewpoint Depression Visibility Wind Speed Wind Dir Waves Ship Positions

Luhe

Last reported at 2014-Jul-29 08:33 UTC. Time now 2014-Jul-29 08:46 UTC.
Position S 39°10' E 146°26'.

Length 280 m; draft 11.1 m.

Type: Cargo ship. MMSI: 354812000.

Date/timePositionNaut miles runAvg speedWind from/ knotsBaromVisibWave heightAir tempDewpointWater temp
2014-Jul-29 08:33S 39°10' E 146°26'7 6.9
2014-Jul-29 07:33S 39°08' E 146°34'7 7.2
2014-Jul-29 06:32S 39°06' E 146°43'7 7.0
2014-Jul-29 05:31S 39°03' E 146°52'7 7.5
2014-Jul-29 04:33S 39°01' E 147°01'1615.6
2014-Jul-29 03:33S 38°56' E 147°20'1616.4
2014-Jul-29 02:33S 38°51' E 147°40'10517.5
2014-Jul-28 20:33S 37°59' E 149°37'1817.2
2014-Jul-28 19:32S 37°48' E 149°54'1817.8
2014-Jul-28 18:33S 37°33' E 150°06'1918.6
2014-Jul-28 17:32S 37°15' E 150°14'  
2014-Jul-25 21:33S 33°21' E 151°59'1514.9
2014-Jul-25 20:33S 33°09' E 152°11'1515.1
2014-Jul-25 19:33S 32°58' E 152°22'1515.2
2014-Jul-25 18:33S 32°46' E 152°34'1615.5
2014-Jul-25 17:33S 32°33' E 152°45'2216.4
2014-Jul-25 16:12S 32°13' E 152°54'1116.3
2014-Jul-25 15:30S 32°02' E 152°59'22316.6
2014-Jul-25 02:07S 28°24' E 153°50'1016.0
2014-Jul-25 01:30S 28°14' E 153°51'1716.0
2014-Jul-25 00:27S 27°57' E 153°52'1415.5
2014-Jul-24 23:34S 27°43' E 153°53'1515.4
2014-Jul-24 22:33S 27°28' E 153°55'1414.5
2014-Jul-24 21:33S 27°14' E 153°56'1514.7
2014-Jul-24 20:33S 26°59' E 153°58'1614.4
2014-Jul-24 19:26S 26°43' E 153°59'1813.8
2014-Jul-24 18:08S 26°25' E 154°01'4314.0
2014-Jul-24 15:04S 25°42' E 154°05'714.1
2014-Jul-24 14:33S 25°35' E 154°06'1514.8
2014-Jul-24 13:31S 25°20' E 154°07'  

Dump ship's entire track history